Airfield :
LOGIN :

Register | Disclaimer

   EN    FR    IT 

 










Legend :    VFR   Marginal VFR   IFR   Intensive IFR   Very Intensive IFR
Visi :
Ceiling :
>= 8 km
>= 3000ft
5 to 8 km
1000 to 3000 ft
1500m to 5 km
500 to 1000 ft
800 to 1500m
200 to 500 ft
< 800m
< 200 ft
Symbols :   Thunderstorms  Fog  Heavy snow  Heavy precipitations  Wind > 20 kt
SIGMETs :     Misc.  Thunderstorms  Icing  Turbulence  Mountain Waves  Volcanic Ashes







- Airport Elevation : 174 ft
- IATA code : RYG


ENRY - Moss , Rygge

CURRENT METAR :
  • 211720Z 02007KT 350V060 9999 -SN BKN014 00/M02 Q1025

EXPIRED METARs :
  • 211650Z 03007KT 9999 -SN BKN013 00/M02 Q1024
  • 211620Z 02007KT 9999 BKN013 00/M01 Q1023
  • 211550Z 01007KT 9999 BKN014 00/M01 Q1022
  • 211520Z 01007KT 9999 BKN016 00/M01 Q1022
  • 211450Z 01007KT 9999 BKN015 00/M01 Q1021

TAF ENRY
Valid from the 21 at 18:00 until the 22 at 18:00 UTC


2118/2218 03005KT 9999 BKN012
TEMPO 2118/2218 BKN015
PROB40 2209/2212 4000 -SNRA
BECMG 2209/2211 19010KT
No reported NOTAMs for that airfield.



MET'MAP, your aeronautical weather chart ! - Copyright ORBIFLY December 2007 - Disclaimer

ORBIFLY MET'MAP TEAM :

Programming & Development : Alexandra Zaïnal
Concept & Development : Baudouin d'Aumeries
Co-Development & Prog : Marc-Olivier Méhu
Technical & hardware support : Manuel Goepfert

Contact : metmap@orbifly.com




SOURCES & CREDITS :

   NOAA